sensor_id;sensor_type;location;lat;lon;timestamp;temperature;humidity
25360;DHT22;13311;51.386;0.016;2023-12-20T00:04:59;9.10;98.50
25360;DHT22;13311;51.386;0.016;2023-12-20T00:09:59;9.10;98.50
25360;DHT22;13311;51.386;0.016;2023-12-20T00:15:00;9.10;98.50
25360;DHT22;13311;51.386;0.016;2023-12-20T00:20:01;9.00;98.70
25360;DHT22;13311;51.386;0.016;2023-12-20T00:25:01;9.00;98.70
25360;DHT22;13311;51.386;0.016;2023-12-20T00:30:02;8.90;99.00
25360;DHT22;13311;51.386;0.016;2023-12-20T00:35:04;9.00;98.80
25360;DHT22;13311;51.386;0.016;2023-12-20T00:40:05;9.10;99.10
25360;DHT22;13311;51.386;0.016;2023-12-20T00:45:06;9.10;99.10
25360;DHT22;13311;51.386;0.016;2023-12-20T00:50:08;9.10;98.90
25360;DHT22;13311;51.386;0.016;2023-12-20T00:55:09;9.10;98.70
25360;DHT22;13311;51.386;0.016;2023-12-20T01:00:10;9.30;98.60
25360;DHT22;13311;51.386;0.016;2023-12-20T01:05:11;9.20;98.70
25360;DHT22;13311;51.386;0.016;2023-12-20T01:10:12;9.20;98.70
25360;DHT22;13311;51.386;0.016;2023-12-20T01:15:13;9.40;98.80
25360;DHT22;13311;51.386;0.016;2023-12-20T01:20:13;9.30;98.50
25360;DHT22;13311;51.386;0.016;2023-12-20T01:25:14;9.20;98.60
25360;DHT22;13311;51.386;0.016;2023-12-20T01:30:15;9.20;98.40
25360;DHT22;13311;51.386;0.016;2023-12-20T01:35:16;9.10;98.40
25360;DHT22;13311;51.386;0.016;2023-12-20T01:40:16;9.20;98.60
25360;DHT22;13311;51.386;0.016;2023-12-20T01:45:17;9.10;98.60
25360;DHT22;13311;51.386;0.016;2023-12-20T01:50:18;9.00;98.60
25360;DHT22;13311;51.386;0.016;2023-12-20T01:55:20;9.00;98.80
25360;DHT22;13311;51.386;0.016;2023-12-20T02:00:21;9.10;99.00
25360;DHT22;13311;51.386;0.016;2023-12-20T02:05:24;9.20;98.70
25360;DHT22;13311;51.386;0.016;2023-12-20T02:10:26;9.30;98.80
25360;DHT22;13311;51.386;0.016;2023-12-20T02:15:27;9.30;98.40
25360;DHT22;13311;51.386;0.016;2023-12-20T02:20:31;9.20;98.60
25360;DHT22;13311;51.386;0.016;2023-12-20T02:25:32;9.20;99.00
25360;DHT22;13311;51.386;0.016;2023-12-20T02:30:33;9.20;98.50
25360;DHT22;13311;51.386;0.016;2023-12-20T02:35:33;9.20;98.70
25360;DHT22;13311;51.386;0.016;2023-12-20T02:40:34;9.20;99.10
25360;DHT22;13311;51.386;0.016;2023-12-20T02:45:35;9.20;98.60
25360;DHT22;13311;51.386;0.016;2023-12-20T02:50:36;9.10;98.70
25360;DHT22;13311;51.386;0.016;2023-12-20T02:55:36;9.10;99.00
25360;DHT22;13311;51.386;0.016;2023-12-20T03:00:37;9.10;98.80
25360;DHT22;13311;51.386;0.016;2023-12-20T03:05:38;9.10;98.90
25360;DHT22;13311;51.386;0.016;2023-12-20T03:10:38;9.10;99.00
25360;DHT22;13311;51.386;0.016;2023-12-20T03:15:39;9.10;99.00
25360;DHT22;13311;51.386;0.016;2023-12-20T03:20:40;9.00;98.90
25360;DHT22;13311;51.386;0.016;2023-12-20T03:25:42;9.00;99.00
25360;DHT22;13311;51.386;0.016;2023-12-20T03:30:42;8.90;99.10
25360;DHT22;13311;51.386;0.016;2023-12-20T03:35:43;8.90;99.30
25360;DHT22;13311;51.386;0.016;2023-12-20T03:40:44;8.90;99.30
25360;DHT22;13311;51.386;0.016;2023-12-20T03:45:45;8.90;99.20
25360;DHT22;13311;51.386;0.016;2023-12-20T03:50:46;8.80;99.20
25360;DHT22;13311;51.386;0.016;2023-12-20T03:55:47;8.80;99.30
25360;DHT22;13311;51.386;0.016;2023-12-20T04:00:48;8.80;99.20
25360;DHT22;13311;51.386;0.016;2023-12-20T04:05:49;8.70;99.50
25360;DHT22;13311;51.386;0.016;2023-12-20T04:10:49;8.70;99.30
25360;DHT22;13311;51.386;0.016;2023-12-20T04:15:50;8.60;99.60
25360;DHT22;13311;51.386;0.016;2023-12-20T04:20:52;8.60;99.50
25360;DHT22;13311;51.386;0.016;2023-12-20T04:25:54;8.50;99.40
25360;DHT22;13311;51.386;0.016;2023-12-20T04:30:54;8.50;99.60
25360;DHT22;13311;51.386;0.016;2023-12-20T04:35:55;8.50;99.70
25360;DHT22;13311;51.386;0.016;2023-12-20T04:40:57;8.50;99.70
25360;DHT22;13311;51.386;0.016;2023-12-20T04:45:59;8.50;99.80
25360;DHT22;13311;51.386;0.016;2023-12-20T04:51:00;8.40;99.90
25360;DHT22;13311;51.386;0.016;2023-12-20T04:56:00;8.50;99.90
25360;DHT22;13311;51.386;0.016;2023-12-20T05:01:01;8.50;99.90
25360;DHT22;13311;51.386;0.016;2023-12-20T05:06:03;8.60;99.80
25360;DHT22;13311;51.386;0.016;2023-12-20T05:11:04;8.60;99.80
25360;DHT22;13311;51.386;0.016;2023-12-20T05:16:05;8.60;99.80
25360;DHT22;13311;51.386;0.016;2023-12-20T05:21:06;8.70;99.80
25360;DHT22;13311;51.386;0.016;2023-12-20T05:26:07;8.70;99.60
25360;DHT22;13311;51.386;0.016;2023-12-20T05:31:08;8.80;99.70
25360;DHT22;13311;51.386;0.016;2023-12-20T05:36:09;8.90;99.70
25360;DHT22;13311;51.386;0.016;2023-12-20T05:41:11;9.10;99.30
25360;DHT22;13311;51.386;0.016;2023-12-20T05:46:12;9.10;99.40
25360;DHT22;13311;51.386;0.016;2023-12-20T05:51:13;9.10;99.10
25360;DHT22;13311;51.386;0.016;2023-12-20T05:56:14;9.10;99.00
25360;DHT22;13311;51.386;0.016;2023-12-20T06:01:15;9.10;99.00
25360;DHT22;13311;51.386;0.016;2023-12-20T06:06:17;9.10;99.10
25360;DHT22;13311;51.386;0.016;2023-12-20T06:11:18;9.10;99.30
25360;DHT22;13311;51.386;0.016;2023-12-20T06:16:19;9.20;99.10
25360;DHT22;13311;51.386;0.016;2023-12-20T06:21:19;9.10;99.40
25360;DHT22;13311;51.386;0.016;2023-12-20T06:26:20;9.10;99.00
25360;DHT22;13311;51.386;0.016;2023-12-20T06:31:21;9.00;99.00
25360;DHT22;13311;51.386;0.016;2023-12-20T06:36:21;9.10;99.10
25360;DHT22;13311;51.386;0.016;2023-12-20T06:41:22;9.00;99.30
25360;DHT22;13311;51.386;0.016;2023-12-20T06:46:24;9.00;99.60
25360;DHT22;13311;51.386;0.016;2023-12-20T06:51:26;9.10;99.30
25360;DHT22;13311;51.386;0.016;2023-12-20T06:56:28;9.20;99.30
25360;DHT22;13311;51.386;0.016;2023-12-20T07:01:29;9.20;99.40
25360;DHT22;13311;51.386;0.016;2023-12-20T07:06:34;9.20;99.40
25360;DHT22;13311;51.386;0.016;2023-12-20T07:11:35;9.20;99.20
25360;DHT22;13311;51.386;0.016;2023-12-20T07:16:36;9.20;99.40
25360;DHT22;13311;51.386;0.016;2023-12-20T07:21:36;9.30;99.20
25360;DHT22;13311;51.386;0.016;2023-12-20T07:26:37;9.20;99.30
25360;DHT22;13311;51.386;0.016;2023-12-20T07:31:39;9.10;99.50
25360;DHT22;13311;51.386;0.016;2023-12-20T07:36:39;9.20;99.60
25360;DHT22;13311;51.386;0.016;2023-12-20T07:41:40;9.30;99.50
25360;DHT22;13311;51.386;0.016;2023-12-20T07:46:41;9.40;99.50
25360;DHT22;13311;51.386;0.016;2023-12-20T07:51:41;9.40;99.50
25360;DHT22;13311;51.386;0.016;2023-12-20T07:56:42;9.40;99.50
25360;DHT22;13311;51.386;0.016;2023-12-20T08:01:44;9.30;99.80
25360;DHT22;13311;51.386;0.016;2023-12-20T08:06:44;9.30;99.90
25360;DHT22;13311;51.386;0.016;2023-12-20T08:11:46;9.40;99.90
25360;DHT22;13311;51.386;0.016;2023-12-20T08:16:47;9.40;99.90
25360;DHT22;13311;51.386;0.016;2023-12-20T08:21:48;9.50;99.90
25360;DHT22;13311;51.386;0.016;2023-12-20T08:26:49;9.50;99.90
25360;DHT22;13311;51.386;0.016;2023-12-20T08:31:53;9.50;99.90
25360;DHT22;13311;51.386;0.016;2023-12-20T08:36:56;9.50;99.90
25360;DHT22;13311;51.386;0.016;2023-12-20T08:41:57;9.40;99.90
25360;DHT22;13311;51.386;0.016;2023-12-20T08:46:58;9.50;99.90
25360;DHT22;13311;51.386;0.016;2023-12-20T08:51:59;9.60;99.90
25360;DHT22;13311;51.386;0.016;2023-12-20T08:57:00;9.70;99.90
25360;DHT22;13311;51.386;0.016;2023-12-20T09:02:01;9.70;99.90
25360;DHT22;13311;51.386;0.016;2023-12-20T09:07:02;9.80;99.90
25360;DHT22;13311;51.386;0.016;2023-12-20T09:12:03;9.90;99.90
25360;DHT22;13311;51.386;0.016;2023-12-20T09:17:04;10.00;99.90
25360;DHT22;13311;51.386;0.016;2023-12-20T09:22:05;10.00;99.90
25360;DHT22;13311;51.386;0.016;2023-12-20T09:27:06;10.10;99.90
25360;DHT22;13311;51.386;0.016;2023-12-20T09:32:07;10.30;99.90
25360;DHT22;13311;51.386;0.016;2023-12-20T09:37:08;10.40;99.50
25360;DHT22;13311;51.386;0.016;2023-12-20T09:42:11;10.50;99.80
25360;DHT22;13311;51.386;0.016;2023-12-20T09:47:16;10.60;99.70
25360;DHT22;13311;51.386;0.016;2023-12-20T09:52:20;10.80;99.50
25360;DHT22;13311;51.386;0.016;2023-12-20T09:57:22;10.90;99.40
25360;DHT22;13311;51.386;0.016;2023-12-20T10:02:25;11.00;99.20
25360;DHT22;13311;51.386;0.016;2023-12-20T10:07:30;11.10;99.20
25360;DHT22;13311;51.386;0.016;2023-12-20T10:12:30;11.10;99.10
25360;DHT22;13311;51.386;0.016;2023-12-20T10:17:31;11.20;99.20
25360;DHT22;13311;51.386;0.016;2023-12-20T10:22:33;11.30;98.80
25360;DHT22;13311;51.386;0.016;2023-12-20T10:27:34;11.30;99.20
25360;DHT22;13311;51.386;0.016;2023-12-20T10:32:35;11.40;99.30
25360;DHT22;13311;51.386;0.016;2023-12-20T10:37:37;11.40;99.10
25360;DHT22;13311;51.386;0.016;2023-12-20T10:42:39;11.50;99.10
25360;DHT22;13311;51.386;0.016;2023-12-20T10:47:42;11.50;99.00
25360;DHT22;13311;51.386;0.016;2023-12-20T10:52:46;11.60;98.80
25360;DHT22;13311;51.386;0.016;2023-12-20T10:57:50;11.70;98.90
25360;DHT22;13311;51.386;0.016;2023-12-20T11:02:53;11.70;98.80
25360;DHT22;13311;51.386;0.016;2023-12-20T11:08:10;11.80;98.40
25360;DHT22;13311;51.386;0.016;2023-12-20T11:13:22;11.80;98.60
25360;DHT22;13311;51.386;0.016;2023-12-20T11:18:32;11.90;98.50
25360;DHT22;13311;51.386;0.016;2023-12-20T11:23:33;11.80;98.40
25360;DHT22;13311;51.386;0.016;2023-12-20T11:28:34;11.80;98.80
25360;DHT22;13311;51.386;0.016;2023-12-20T11:33:38;11.80;98.90
25360;DHT22;13311;51.386;0.016;2023-12-20T11:39:07;11.80;98.90
25360;DHT22;13311;51.386;0.016;2023-12-20T11:44:10;11.80;98.90
25360;DHT22;13311;51.386;0.016;2023-12-20T11:49:12;11.90;98.80
25360;DHT22;13311;51.386;0.016;2023-12-20T11:54:15;12.00;98.60
25360;DHT22;13311;51.386;0.016;2023-12-20T11:59:16;12.00;98.50
25360;DHT22;13311;51.386;0.016;2023-12-20T12:04:19;12.00;98.90
25360;DHT22;13311;51.386;0.016;2023-12-20T12:09:19;12.00;99.10
25360;DHT22;13311;51.386;0.016;2023-12-20T12:14:20;12.20;98.80
25360;DHT22;13311;51.386;0.016;2023-12-20T12:19:25;12.30;98.80
25360;DHT22;13311;51.386;0.016;2023-12-20T12:24:26;12.40;98.60
25360;DHT22;13311;51.386;0.016;2023-12-20T12:29:27;12.50;98.60
25360;DHT22;13311;51.386;0.016;2023-12-20T12:34:28;12.40;98.40
25360;DHT22;13311;51.386;0.016;2023-12-20T12:39:29;12.50;98.40
25360;DHT22;13311;51.386;0.016;2023-12-20T12:44:30;12.50;98.80
25360;DHT22;13311;51.386;0.016;2023-12-20T12:49:32;12.60;98.50
25360;DHT22;13311;51.386;0.016;2023-12-20T12:54:32;12.80;98.20
25360;DHT22;13311;51.386;0.016;2023-12-20T12:59:33;12.80;98.00
25360;DHT22;13311;51.386;0.016;2023-12-20T13:04:34;12.90;97.90
25360;DHT22;13311;51.386;0.016;2023-12-20T13:09:34;13.00;98.00
25360;DHT22;13311;51.386;0.016;2023-12-20T13:14:36;13.10;97.90
25360;DHT22;13311;51.386;0.016;2023-12-20T13:19:39;13.20;97.80
25360;DHT22;13311;51.386;0.016;2023-12-20T13:24:40;13.20;97.60
25360;DHT22;13311;51.386;0.016;2023-12-20T13:29:41;13.20;97.60
25360;DHT22;13311;51.386;0.016;2023-12-20T13:34:41;13.20;97.60
25360;DHT22;13311;51.386;0.016;2023-12-20T13:39:42;13.20;97.70
25360;DHT22;13311;51.386;0.016;2023-12-20T13:44:43;13.20;97.90
25360;DHT22;13311;51.386;0.016;2023-12-20T13:49:44;13.30;97.70
25360;DHT22;13311;51.386;0.016;2023-12-20T13:54:45;13.30;97.70
25360;DHT22;13311;51.386;0.016;2023-12-20T13:59:46;13.10;98.00
25360;DHT22;13311;51.386;0.016;2023-12-20T14:04:47;13.20;97.90
25360;DHT22;13311;51.386;0.016;2023-12-20T14:09:48;13.40;97.60
25360;DHT22;13311;51.386;0.016;2023-12-20T14:14:49;13.30;97.70
25360;DHT22;13311;51.386;0.016;2023-12-20T14:19:50;13.30;97.80
25360;DHT22;13311;51.386;0.016;2023-12-20T14:24:52;13.20;97.90
25360;DHT22;13311;51.386;0.016;2023-12-20T14:29:54;13.10;98.00
25360;DHT22;13311;51.386;0.016;2023-12-20T14:34:55;13.20;98.10
25360;DHT22;13311;51.386;0.016;2023-12-20T14:39:56;13.10;98.10
25360;DHT22;13311;51.386;0.016;2023-12-20T14:44:57;13.20;98.20
25360;DHT22;13311;51.386;0.016;2023-12-20T14:49:58;13.20;98.20
25360;DHT22;13311;51.386;0.016;2023-12-20T14:55:00;13.20;98.00
25360;DHT22;13311;51.386;0.016;2023-12-20T15:00:04;13.20;98.00
25360;DHT22;13311;51.386;0.016;2023-12-20T15:05:08;13.30;98.10
25360;DHT22;13311;51.386;0.016;2023-12-20T15:10:09;13.30;98.00
25360;DHT22;13311;51.386;0.016;2023-12-20T15:15:10;13.30;97.90
25360;DHT22;13311;51.386;0.016;2023-12-20T15:20:11;13.30;98.00
25360;DHT22;13311;51.386;0.016;2023-12-20T15:25:13;13.30;98.10
25360;DHT22;13311;51.386;0.016;2023-12-20T15:30:22;13.40;98.10
25360;DHT22;13311;51.386;0.016;2023-12-20T15:35:24;13.30;98.10
25360;DHT22;13311;51.386;0.016;2023-12-20T15:40:26;13.40;97.90
25360;DHT22;13311;51.386;0.016;2023-12-20T15:45:26;13.30;98.20
25360;DHT22;13311;51.386;0.016;2023-12-20T15:50:27;13.20;98.10
25360;DHT22;13311;51.386;0.016;2023-12-20T15:55:28;13.20;98.20
25360;DHT22;13311;51.386;0.016;2023-12-20T16:00:28;13.20;98.20
25360;DHT22;13311;51.386;0.016;2023-12-20T16:05:31;13.10;98.10
25360;DHT22;13311;51.386;0.016;2023-12-20T16:10:32;13.20;98.40
25360;DHT22;13311;51.386;0.016;2023-12-20T16:15:33;13.10;98.10
25360;DHT22;13311;51.386;0.016;2023-12-20T16:20:33;13.10;98.50
25360;DHT22;13311;51.386;0.016;2023-12-20T16:25:34;13.10;98.60
25360;DHT22;13311;51.386;0.016;2023-12-20T16:30:38;13.20;98.80
25360;DHT22;13311;51.386;0.016;2023-12-20T16:35:39;13.20;98.50
25360;DHT22;13311;51.386;0.016;2023-12-20T16:40:39;13.30;98.50
25360;DHT22;13311;51.386;0.016;2023-12-20T16:45:40;13.40;98.60
25360;DHT22;13311;51.386;0.016;2023-12-20T16:50:41;13.30;98.60
25360;DHT22;13311;51.386;0.016;2023-12-20T16:55:43;13.30;98.70
25360;DHT22;13311;51.386;0.016;2023-12-20T17:00:44;13.30;98.70
25360;DHT22;13311;51.386;0.016;2023-12-20T17:05:45;13.40;98.60
25360;DHT22;13311;51.386;0.016;2023-12-20T17:10:46;13.40;98.60
25360;DHT22;13311;51.386;0.016;2023-12-20T17:15:47;13.30;98.60
25360;DHT22;13311;51.386;0.016;2023-12-20T17:20:47;13.30;98.60
25360;DHT22;13311;51.386;0.016;2023-12-20T17:25:48;13.30;98.50
25360;DHT22;13311;51.386;0.016;2023-12-20T17:30:49;13.50;98.80
25360;DHT22;13311;51.386;0.016;2023-12-20T17:35:50;13.40;98.60
25360;DHT22;13311;51.386;0.016;2023-12-20T17:40:53;13.30;98.60
25360;DHT22;13311;51.386;0.016;2023-12-20T17:45:55;13.40;98.70
25360;DHT22;13311;51.386;0.016;2023-12-20T17:50:56;13.30;98.90
25360;DHT22;13311;51.386;0.016;2023-12-20T17:55:57;13.20;98.90
25360;DHT22;13311;51.386;0.016;2023-12-20T18:00:58;13.30;98.80
25360;DHT22;13311;51.386;0.016;2023-12-20T18:05:59;13.30;98.70
25360;DHT22;13311;51.386;0.016;2023-12-20T18:11:00;13.30;98.60
25360;DHT22;13311;51.386;0.016;2023-12-20T18:16:00;13.20;98.60
25360;DHT22;13311;51.386;0.016;2023-12-20T18:21:01;13.20;98.70
25360;DHT22;13311;51.386;0.016;2023-12-20T18:26:03;13.20;98.80
25360;DHT22;13311;51.386;0.016;2023-12-20T18:31:04;13.30;98.90
25360;DHT22;13311;51.386;0.016;2023-12-20T18:36:05;13.30;98.80
25360;DHT22;13311;51.386;0.016;2023-12-20T18:41:05;13.30;98.70
25360;DHT22;13311;51.386;0.016;2023-12-20T18:46:06;13.30;98.80
25360;DHT22;13311;51.386;0.016;2023-12-20T18:51:07;13.30;98.70
25360;DHT22;13311;51.386;0.016;2023-12-20T18:56:08;13.30;98.60
25360;DHT22;13311;51.386;0.016;2023-12-20T19:01:09;13.40;98.40
25360;DHT22;13311;51.386;0.016;2023-12-20T19:06:10;13.40;98.60
25360;DHT22;13311;51.386;0.016;2023-12-20T19:11:11;13.40;98.70
25360;DHT22;13311;51.386;0.016;2023-12-20T19:16:13;13.50;98.80
25360;DHT22;13311;51.386;0.016;2023-12-20T19:21:14;13.50;98.60
25360;DHT22;13311;51.386;0.016;2023-12-20T19:26:15;13.50;98.80
25360;DHT22;13311;51.386;0.016;2023-12-20T19:31:16;13.40;98.70
25360;DHT22;13311;51.386;0.016;2023-12-20T19:36:17;13.40;98.70
25360;DHT22;13311;51.386;0.016;2023-12-20T19:41:17;13.40;98.70
25360;DHT22;13311;51.386;0.016;2023-12-20T19:46:18;13.40;98.70
25360;DHT22;13311;51.386;0.016;2023-12-20T19:51:19;13.40;98.60
25360;DHT22;13311;51.386;0.016;2023-12-20T19:56:21;13.50;98.60
25360;DHT22;13311;51.386;0.016;2023-12-20T20:01:23;13.40;98.50
25360;DHT22;13311;51.386;0.016;2023-12-20T20:06:24;13.30;98.60
25360;DHT22;13311;51.386;0.016;2023-12-20T20:11:25;13.30;98.50
25360;DHT22;13311;51.386;0.016;2023-12-20T20:16:26;13.20;98.60
25360;DHT22;13311;51.386;0.016;2023-12-20T20:21:27;13.10;98.60
25360;DHT22;13311;51.386;0.016;2023-12-20T20:26:28;13.00;98.80
25360;DHT22;13311;51.386;0.016;2023-12-20T20:31:29;13.10;98.90
25360;DHT22;13311;51.386;0.016;2023-12-20T20:36:34;13.10;98.80
25360;DHT22;13311;51.386;0.016;2023-12-20T20:41:35;12.90;99.10
25360;DHT22;13311;51.386;0.016;2023-12-20T20:46:35;12.90;99.20
25360;DHT22;13311;51.386;0.016;2023-12-20T20:51:36;13.00;99.30
25360;DHT22;13311;51.386;0.016;2023-12-20T20:56:37;12.90;99.40
25360;DHT22;13311;51.386;0.016;2023-12-20T21:01:38;13.00;99.30
25360;DHT22;13311;51.386;0.016;2023-12-20T21:06:39;12.90;99.30
25360;DHT22;13311;51.386;0.016;2023-12-20T21:11:40;13.00;99.20
25360;DHT22;13311;51.386;0.016;2023-12-20T21:16:40;13.00;99.30
25360;DHT22;13311;51.386;0.016;2023-12-20T21:21:41;13.10;99.20
25360;DHT22;13311;51.386;0.016;2023-12-20T21:26:42;13.10;99.20
25360;DHT22;13311;51.386;0.016;2023-12-20T21:31:43;13.10;99.00
25360;DHT22;13311;51.386;0.016;2023-12-20T21:36:43;13.00;99.20
25360;DHT22;13311;51.386;0.016;2023-12-20T21:41:45;12.90;99.10
25360;DHT22;13311;51.386;0.016;2023-12-20T21:46:46;12.90;99.20
25360;DHT22;13311;51.386;0.016;2023-12-20T21:51:46;12.80;99.40
25360;DHT22;13311;51.386;0.016;2023-12-20T21:56:48;13.00;99.40
25360;DHT22;13311;51.386;0.016;2023-12-20T22:01:51;12.80;99.60
25360;DHT22;13311;51.386;0.016;2023-12-20T22:06:53;12.90;99.40
25360;DHT22;13311;51.386;0.016;2023-12-20T22:11:54;12.90;99.40
25360;DHT22;13311;51.386;0.016;2023-12-20T22:16:56;12.90;99.50
25360;DHT22;13311;51.386;0.016;2023-12-20T22:21:58;12.80;99.60
25360;DHT22;13311;51.386;0.016;2023-12-20T22:26:59;12.90;99.60
25360;DHT22;13311;51.386;0.016;2023-12-20T22:32:01;12.90;99.60
25360;DHT22;13311;51.386;0.016;2023-12-20T22:37:01;13.00;99.50
25360;DHT22;13311;51.386;0.016;2023-12-20T22:42:03;13.20;99.40
25360;DHT22;13311;51.386;0.016;2023-12-20T22:47:04;13.20;99.50
25360;DHT22;13311;51.386;0.016;2023-12-20T22:52:06;13.30;99.70
25360;DHT22;13311;51.386;0.016;2023-12-20T22:57:07;13.40;99.20
25360;DHT22;13311;51.386;0.016;2023-12-20T23:02:10;13.40;99.10
25360;DHT22;13311;51.386;0.016;2023-12-20T23:07:11;13.40;99.10
25360;DHT22;13311;51.386;0.016;2023-12-20T23:12:12;13.50;99.10
25360;DHT22;13311;51.386;0.016;2023-12-20T23:17:12;13.50;99.10
25360;DHT22;13311;51.386;0.016;2023-12-20T23:22:13;13.50;99.10
25360;DHT22;13311;51.386;0.016;2023-12-20T23:27:14;13.60;99.00
25360;DHT22;13311;51.386;0.016;2023-12-20T23:32:14;13.60;99.00
25360;DHT22;13311;51.386;0.016;2023-12-20T23:37:15;13.60;98.90
25360;DHT22;13311;51.386;0.016;2023-12-20T23:42:16;13.70;98.90
25360;DHT22;13311;51.386;0.016;2023-12-20T23:47:20;13.70;98.70
25360;DHT22;13311;51.386;0.016;2023-12-20T23:52:21;13.70;98.80
25360;DHT22;13311;51.386;0.016;2023-12-20T23:57:22;13.80;98.70
